sensor_id;sensor_type;location;lat;lon;timestamp;temperature;humidity
25200;DHT22;33094;48.782;9.162;2024-02-16T00:00:07;11.50;99.90
25200;DHT22;33094;48.782;9.162;2024-02-16T00:02:33;11.50;99.90
25200;DHT22;33094;48.782;9.162;2024-02-16T00:04:59;11.80;99.90
25200;DHT22;33094;48.782;9.162;2024-02-16T00:07:25;11.70;99.90
25200;DHT22;33094;48.782;9.162;2024-02-16T00:09:50;11.70;99.90
25200;DHT22;33094;48.782;9.162;2024-02-16T00:12:16;11.70;99.90
25200;DHT22;33094;48.782;9.162;2024-02-16T00:14:42;11.70;99.90
25200;DHT22;33094;48.782;9.162;2024-02-16T00:17:08;11.60;99.90
25200;DHT22;33094;48.782;9.162;2024-02-16T00:19:35;11.80;99.90
25200;DHT22;33094;48.782;9.162;2024-02-16T00:22:01;11.40;99.90
25200;DHT22;33094;48.782;9.162;2024-02-16T00:24:27;11.50;99.90
25200;DHT22;33094;48.782;9.162;2024-02-16T00:26:53;11.50;99.90
25200;DHT22;33094;48.782;9.162;2024-02-16T00:29:19;11.60;99.90
25200;DHT22;33094;48.782;9.162;2024-02-16T00:31:48;11.60;99.90
25200;DHT22;33094;48.782;9.162;2024-02-16T00:34:13;11.50;99.90
25200;DHT22;33094;48.782;9.162;2024-02-16T00:36:41;11.60;99.90
25200;DHT22;33094;48.782;9.162;2024-02-16T00:39:15;12.30;99.90
25200;DHT22;33094;48.782;9.162;2024-02-16T00:41:41;11.60;99.90
25200;DHT22;33094;48.782;9.162;2024-02-16T00:44:11;11.60;99.90
25200;DHT22;33094;48.782;9.162;2024-02-16T00:46:38;11.60;99.90
25200;DHT22;33094;48.782;9.162;2024-02-16T00:49:04;11.70;99.90
25200;DHT22;33094;48.782;9.162;2024-02-16T00:51:29;12.20;99.90
25200;DHT22;33094;48.782;9.162;2024-02-16T00:53:55;11.70;99.90
25200;DHT22;33094;48.782;9.162;2024-02-16T00:56:21;11.70;99.90
25200;DHT22;33094;48.782;9.162;2024-02-16T00:58:46;11.70;99.90
25200;DHT22;33094;48.782;9.162;2024-02-16T01:01:12;12.00;99.90
25200;DHT22;33094;48.782;9.162;2024-02-16T01:03:39;11.70;99.90
25200;DHT22;33094;48.782;9.162;2024-02-16T01:06:08;11.70;99.90
25200;DHT22;33094;48.782;9.162;2024-02-16T01:08:36;12.30;99.90
25200;DHT22;33094;48.782;9.162;2024-02-16T01:11:05;11.60;99.90
25200;DHT22;33094;48.782;9.162;2024-02-16T01:13:31;11.60;99.90
25200;DHT22;33094;48.782;9.162;2024-02-16T01:15:58;11.50;99.90
25200;DHT22;33094;48.782;9.162;2024-02-16T01:18:23;14.40;99.90
25200;DHT22;33094;48.782;9.162;2024-02-16T01:20:49;11.40;99.90
25200;DHT22;33094;48.782;9.162;2024-02-16T01:23:14;11.50;99.90
25200;DHT22;33094;48.782;9.162;2024-02-16T01:25:43;11.50;99.90
25200;DHT22;33094;48.782;9.162;2024-02-16T01:28:11;11.50;99.90
25200;DHT22;33094;48.782;9.162;2024-02-16T01:30:44;11.30;99.90
25200;DHT22;33094;48.782;9.162;2024-02-16T01:33:12;11.20;99.90
25200;DHT22;33094;48.782;9.162;2024-02-16T01:35:41;11.20;99.90
25200;DHT22;33094;48.782;9.162;2024-02-16T01:38:07;11.10;99.90
25200;DHT22;33094;48.782;9.162;2024-02-16T01:40:35;11.20;99.90
25200;DHT22;33094;48.782;9.162;2024-02-16T01:43:02;11.30;99.90
25200;DHT22;33094;48.782;9.162;2024-02-16T01:45:28;11.30;99.90
25200;DHT22;33094;48.782;9.162;2024-02-16T01:47:54;11.30;99.90
25200;DHT22;33094;48.782;9.162;2024-02-16T01:50:22;11.40;99.90
25200;DHT22;33094;48.782;9.162;2024-02-16T01:52:49;11.40;99.90
25200;DHT22;33094;48.782;9.162;2024-02-16T01:55:15;11.40;99.90
25200;DHT22;33094;48.782;9.162;2024-02-16T01:57:44;13.30;99.90
25200;DHT22;33094;48.782;9.162;2024-02-16T02:00:10;11.20;99.90
25200;DHT22;33094;48.782;9.162;2024-02-16T02:02:37;11.30;99.90
25200;DHT22;33094;48.782;9.162;2024-02-16T02:05:03;11.40;99.90
25200;DHT22;33094;48.782;9.162;2024-02-16T02:07:31;11.40;99.90
25200;DHT22;33094;48.782;9.162;2024-02-16T02:09:57;11.30;99.90
25200;DHT22;33094;48.782;9.162;2024-02-16T02:12:22;11.40;99.90
25200;DHT22;33094;48.782;9.162;2024-02-16T02:14:48;13.90;99.90
25200;DHT22;33094;48.782;9.162;2024-02-16T02:17:14;11.30;99.90
25200;DHT22;33094;48.782;9.162;2024-02-16T02:19:39;11.30;99.90
25200;DHT22;33094;48.782;9.162;2024-02-16T02:22:11;11.30;99.90
25200;DHT22;33094;48.782;9.162;2024-02-16T02:24:36;11.40;99.90
25200;DHT22;33094;48.782;9.162;2024-02-16T02:27:02;13.00;99.90
25200;DHT22;33094;48.782;9.162;2024-02-16T02:29:27;11.60;99.90
25200;DHT22;33094;48.782;9.162;2024-02-16T02:31:53;11.50;99.90
25200;DHT22;33094;48.782;9.162;2024-02-16T02:34:20;12.60;99.90
25200;DHT22;33094;48.782;9.162;2024-02-16T02:36:45;12.70;99.90
25200;DHT22;33094;48.782;9.162;2024-02-16T02:39:12;11.50;99.90
25200;DHT22;33094;48.782;9.162;2024-02-16T02:41:38;11.40;99.90
25200;DHT22;33094;48.782;9.162;2024-02-16T02:44:04;11.40;99.90
25200;DHT22;33094;48.782;9.162;2024-02-16T02:46:30;12.10;99.90
25200;DHT22;33094;48.782;9.162;2024-02-16T02:48:56;12.70;99.90
25200;DHT22;33094;48.782;9.162;2024-02-16T02:51:21;11.10;99.90
25200;DHT22;33094;48.782;9.162;2024-02-16T02:53:47;11.00;99.90
25200;DHT22;33094;48.782;9.162;2024-02-16T02:56:12;11.80;99.90
25200;DHT22;33094;48.782;9.162;2024-02-16T02:58:41;11.10;99.90
25200;DHT22;33094;48.782;9.162;2024-02-16T03:01:07;11.30;99.90
25200;DHT22;33094;48.782;9.162;2024-02-16T03:03:33;12.30;99.90
25200;DHT22;33094;48.782;9.162;2024-02-16T03:05:59;12.60;99.90
25200;DHT22;33094;48.782;9.162;2024-02-16T03:08:25;11.30;99.90
25200;DHT22;33094;48.782;9.162;2024-02-16T03:10:50;12.60;99.90
25200;DHT22;33094;48.782;9.162;2024-02-16T03:13:17;11.60;99.90
25200;DHT22;33094;48.782;9.162;2024-02-16T03:15:44;11.40;99.90
25200;DHT22;33094;48.782;9.162;2024-02-16T03:18:10;11.50;99.90
25200;DHT22;33094;48.782;9.162;2024-02-16T03:20:35;11.50;99.90
25200;DHT22;33094;48.782;9.162;2024-02-16T03:23:01;12.80;99.90
25200;DHT22;33094;48.782;9.162;2024-02-16T03:25:27;11.40;99.90
25200;DHT22;33094;48.782;9.162;2024-02-16T03:27:52;11.30;99.90
25200;DHT22;33094;48.782;9.162;2024-02-16T03:30:20;14.30;99.90
25200;DHT22;33094;48.782;9.162;2024-02-16T03:32:50;11.30;99.90
25200;DHT22;33094;48.782;9.162;2024-02-16T03:35:17;11.30;99.90
25200;DHT22;33094;48.782;9.162;2024-02-16T03:37:43;11.30;99.90
25200;DHT22;33094;48.782;9.162;2024-02-16T03:40:08;12.70;99.90
25200;DHT22;33094;48.782;9.162;2024-02-16T03:42:36;11.20;99.90
25200;DHT22;33094;48.782;9.162;2024-02-16T03:45:02;11.70;99.90
25200;DHT22;33094;48.782;9.162;2024-02-16T03:47:28;12.60;99.90
25200;DHT22;33094;48.782;9.162;2024-02-16T03:49:53;11.00;99.90
25200;DHT22;33094;48.782;9.162;2024-02-16T03:52:19;11.00;99.90
25200;DHT22;33094;48.782;9.162;2024-02-16T03:54:44;10.90;99.90
25200;DHT22;33094;48.782;9.162;2024-02-16T03:57:13;11.90;99.90
25200;DHT22;33094;48.782;9.162;2024-02-16T03:59:39;11.00;99.90
25200;DHT22;33094;48.782;9.162;2024-02-16T04:02:05;11.80;99.90
25200;DHT22;33094;48.782;9.162;2024-02-16T04:04:30;11.20;99.90
25200;DHT22;33094;48.782;9.162;2024-02-16T04:06:56;11.30;99.90
25200;DHT22;33094;48.782;9.162;2024-02-16T04:09:21;11.30;99.90
25200;DHT22;33094;48.782;9.162;2024-02-16T04:11:47;11.20;99.90
25200;DHT22;33094;48.782;9.162;2024-02-16T04:14:12;11.30;99.90
25200;DHT22;33094;48.782;9.162;2024-02-16T04:16:38;11.40;99.90
25200;DHT22;33094;48.782;9.162;2024-02-16T04:19:03;11.50;99.90
25200;DHT22;33094;48.782;9.162;2024-02-16T04:21:29;11.60;99.90
25200;DHT22;33094;48.782;9.162;2024-02-16T04:23:54;11.40;99.90
25200;DHT22;33094;48.782;9.162;2024-02-16T04:26:20;13.60;99.90
25200;DHT22;33094;48.782;9.162;2024-02-16T04:28:45;11.40;99.90
25200;DHT22;33094;48.782;9.162;2024-02-16T04:31:11;11.40;99.90
25200;DHT22;33094;48.782;9.162;2024-02-16T04:33:36;12.30;99.90
25200;DHT22;33094;48.782;9.162;2024-02-16T04:36:05;11.20;99.90
25200;DHT22;33094;48.782;9.162;2024-02-16T04:38:30;11.10;99.90
25200;DHT22;33094;48.782;9.162;2024-02-16T04:40:56;11.70;99.90
25200;DHT22;33094;48.782;9.162;2024-02-16T04:43:21;11.10;99.90
25200;DHT22;33094;48.782;9.162;2024-02-16T04:45:47;11.80;99.90
25200;DHT22;33094;48.782;9.162;2024-02-16T04:48:12;12.70;99.90
25200;DHT22;33094;48.782;9.162;2024-02-16T04:50:38;11.10;99.90
25200;DHT22;33094;48.782;9.162;2024-02-16T04:53:03;13.10;99.90
25200;DHT22;33094;48.782;9.162;2024-02-16T04:55:29;12.00;99.90
25200;DHT22;33094;48.782;9.162;2024-02-16T04:57:56;11.20;99.90
25200;DHT22;33094;48.782;9.162;2024-02-16T05:00:22;11.40;99.90
25200;DHT22;33094;48.782;9.162;2024-02-16T05:02:47;11.30;99.90
25200;DHT22;33094;48.782;9.162;2024-02-16T05:05:13;11.40;99.90
25200;DHT22;33094;48.782;9.162;2024-02-16T05:07:42;11.30;99.90
25200;DHT22;33094;48.782;9.162;2024-02-16T05:10:10;11.30;99.90
25200;DHT22;33094;48.782;9.162;2024-02-16T05:12:36;11.20;99.90
25200;DHT22;33094;48.782;9.162;2024-02-16T05:15:02;11.10;99.90
25200;DHT22;33094;48.782;9.162;2024-02-16T05:17:29;11.00;99.90
25200;DHT22;33094;48.782;9.162;2024-02-16T05:19:54;11.00;99.90
25200;DHT22;33094;48.782;9.162;2024-02-16T05:22:20;10.90;99.90
25200;DHT22;33094;48.782;9.162;2024-02-16T05:24:47;10.90;99.90
25200;DHT22;33094;48.782;9.162;2024-02-16T05:27:12;11.00;99.90
25200;DHT22;33094;48.782;9.162;2024-02-16T05:29:38;11.10;99.90
25200;DHT22;33094;48.782;9.162;2024-02-16T05:32:04;11.10;99.90
25200;DHT22;33094;48.782;9.162;2024-02-16T05:34:29;11.20;99.90
25200;DHT22;33094;48.782;9.162;2024-02-16T05:37:06;11.10;99.90
25200;DHT22;33094;48.782;9.162;2024-02-16T05:39:32;11.00;99.90
25200;DHT22;33094;48.782;9.162;2024-02-16T05:42:00;11.70;99.90
25200;DHT22;33094;48.782;9.162;2024-02-16T05:44:26;12.80;99.90
25200;DHT22;33094;48.782;9.162;2024-02-16T05:46:51;11.20;99.90
25200;DHT22;33094;48.782;9.162;2024-02-16T05:49:17;11.10;99.90
25200;DHT22;33094;48.782;9.162;2024-02-16T05:51:43;11.00;99.90
25200;DHT22;33094;48.782;9.162;2024-02-16T05:54:25;11.80;99.90
25200;DHT22;33094;48.782;9.162;2024-02-16T05:56:51;10.70;99.90
25200;DHT22;33094;48.782;9.162;2024-02-16T05:59:16;11.40;99.90
25200;DHT22;33094;48.782;9.162;2024-02-16T06:01:42;10.90;99.90
25200;DHT22;33094;48.782;9.162;2024-02-16T06:04:07;11.00;99.90
25200;DHT22;33094;48.782;9.162;2024-02-16T06:06:33;10.90;99.90
25200;DHT22;33094;48.782;9.162;2024-02-16T06:09:00;11.00;99.90
25200;DHT22;33094;48.782;9.162;2024-02-16T06:11:26;11.10;99.90
25200;DHT22;33094;48.782;9.162;2024-02-16T06:13:51;11.10;99.90
25200;DHT22;33094;48.782;9.162;2024-02-16T06:16:17;11.10;99.90
25200;DHT22;33094;48.782;9.162;2024-02-16T06:18:42;13.10;99.90
25200;DHT22;33094;48.782;9.162;2024-02-16T06:21:08;11.10;99.90
25200;DHT22;33094;48.782;9.162;2024-02-16T06:23:34;11.30;99.90
25200;DHT22;33094;48.782;9.162;2024-02-16T06:25:59;11.20;99.90
25200;DHT22;33094;48.782;9.162;2024-02-16T06:28:25;11.30;99.90
25200;DHT22;33094;48.782;9.162;2024-02-16T06:30:50;11.20;99.90
25200;DHT22;33094;48.782;9.162;2024-02-16T06:33:16;14.90;99.90
25200;DHT22;33094;48.782;9.162;2024-02-16T06:35:41;13.40;99.90
25200;DHT22;33094;48.782;9.162;2024-02-16T06:38:06;11.20;99.90
25200;DHT22;33094;48.782;9.162;2024-02-16T06:40:32;11.30;99.90
25200;DHT22;33094;48.782;9.162;2024-02-16T06:42:57;11.20;99.90
25200;DHT22;33094;48.782;9.162;2024-02-16T06:45:23;11.20;99.90
25200;DHT22;33094;48.782;9.162;2024-02-16T06:47:48;11.20;99.90
25200;DHT22;33094;48.782;9.162;2024-02-16T06:50:14;10.90;99.90
25200;DHT22;33094;48.782;9.162;2024-02-16T06:52:41;10.80;99.90
25200;DHT22;33094;48.782;9.162;2024-02-16T06:55:06;11.90;99.90
25200;DHT22;33094;48.782;9.162;2024-02-16T06:57:33;10.80;99.90
25200;DHT22;33094;48.782;9.162;2024-02-16T06:59:59;11.60;99.90
25200;DHT22;33094;48.782;9.162;2024-02-16T07:02:24;10.70;99.90
25200;DHT22;33094;48.782;9.162;2024-02-16T07:04:50;10.60;99.90
25200;DHT22;33094;48.782;9.162;2024-02-16T07:07:16;10.70;99.90
25200;DHT22;33094;48.782;9.162;2024-02-16T07:09:41;10.90;99.90
25200;DHT22;33094;48.782;9.162;2024-02-16T07:12:07;11.00;99.90
25200;DHT22;33094;48.782;9.162;2024-02-16T07:14:33;11.00;99.90
25200;DHT22;33094;48.782;9.162;2024-02-16T07:16:58;11.00;99.90
25200;DHT22;33094;48.782;9.162;2024-02-16T07:19:24;11.40;99.90
25200;DHT22;33094;48.782;9.162;2024-02-16T07:21:50;11.00;99.90
25200;DHT22;33094;48.782;9.162;2024-02-16T07:24:17;10.90;99.90
25200;DHT22;33094;48.782;9.162;2024-02-16T07:26:43;10.80;99.90
25200;DHT22;33094;48.782;9.162;2024-02-16T07:29:08;11.90;99.90
25200;DHT22;33094;48.782;9.162;2024-02-16T07:31:34;10.90;99.90
25200;DHT22;33094;48.782;9.162;2024-02-16T07:34:03;13.10;99.90
25200;DHT22;33094;48.782;9.162;2024-02-16T07:36:28;11.00;99.90
25200;DHT22;33094;48.782;9.162;2024-02-16T07:38:54;12.00;99.90
25200;DHT22;33094;48.782;9.162;2024-02-16T07:41:20;13.30;99.90
25200;DHT22;33094;48.782;9.162;2024-02-16T07:43:45;13.20;99.90
25200;DHT22;33094;48.782;9.162;2024-02-16T07:46:11;11.00;99.90
25200;DHT22;33094;48.782;9.162;2024-02-16T07:48:37;11.00;99.90
25200;DHT22;33094;48.782;9.162;2024-02-16T07:51:02;11.00;99.90
25200;DHT22;33094;48.782;9.162;2024-02-16T07:53:28;11.10;99.90
25200;DHT22;33094;48.782;9.162;2024-02-16T07:55:54;11.20;99.90
25200;DHT22;33094;48.782;9.162;2024-02-16T07:58:20;9.70;99.90
25200;DHT22;33094;48.782;9.162;2024-02-16T08:00:46;11.50;99.90
25200;DHT22;33094;48.782;9.162;2024-02-16T08:03:11;11.20;99.90
25200;DHT22;33094;48.782;9.162;2024-02-16T08:05:37;11.20;99.90
25200;DHT22;33094;48.782;9.162;2024-02-16T08:08:02;11.70;99.90
25200;DHT22;33094;48.782;9.162;2024-02-16T08:10:28;11.20;99.90
25200;DHT22;33094;48.782;9.162;2024-02-16T08:12:55;11.10;99.90
25200;DHT22;33094;48.782;9.162;2024-02-16T08:15:21;11.10;99.90
25200;DHT22;33094;48.782;9.162;2024-02-16T08:17:48;12.30;99.90
25200;DHT22;33094;48.782;9.162;2024-02-16T08:20:15;12.90;99.90
25200;DHT22;33094;48.782;9.162;2024-02-16T08:22:42;11.30;99.90
25200;DHT22;33094;48.782;9.162;2024-02-16T08:25:07;11.40;99.90
25200;DHT22;33094;48.782;9.162;2024-02-16T08:27:33;11.30;99.90
25200;DHT22;33094;48.782;9.162;2024-02-16T08:29:59;11.50;99.90
25200;DHT22;33094;48.782;9.162;2024-02-16T08:32:24;11.50;99.90
25200;DHT22;33094;48.782;9.162;2024-02-16T08:34:50;11.60;99.90
25200;DHT22;33094;48.782;9.162;2024-02-16T08:37:16;11.20;99.90
25200;DHT22;33094;48.782;9.162;2024-02-16T08:39:41;11.90;99.90
25200;DHT22;33094;48.782;9.162;2024-02-16T08:42:07;11.80;99.90
25200;DHT22;33094;48.782;9.162;2024-02-16T08:44:37;12.00;99.90
25200;DHT22;33094;48.782;9.162;2024-02-16T08:47:04;15.10;99.90
25200;DHT22;33094;48.782;9.162;2024-02-16T08:49:30;12.10;99.90
25200;DHT22;33094;48.782;9.162;2024-02-16T08:51:56;12.10;99.90
25200;DHT22;33094;48.782;9.162;2024-02-16T08:54:22;12.20;99.90
25200;DHT22;33094;48.782;9.162;2024-02-16T08:56:47;12.30;99.90
25200;DHT22;33094;48.782;9.162;2024-02-16T08:59:14;14.90;99.90
25200;DHT22;33094;48.782;9.162;2024-02-16T09:01:39;12.50;99.90
25200;DHT22;33094;48.782;9.162;2024-02-16T09:04:05;12.50;99.90
25200;DHT22;33094;48.782;9.162;2024-02-16T09:06:31;12.50;99.90
25200;DHT22;33094;48.782;9.162;2024-02-16T09:08:56;12.70;99.90
25200;DHT22;33094;48.782;9.162;2024-02-16T09:11:22;12.70;99.90
25200;DHT22;33094;48.782;9.162;2024-02-16T09:13:48;13.00;99.90
25200;DHT22;33094;48.782;9.162;2024-02-16T09:16:16;11.00;99.90
25200;DHT22;33094;48.782;9.162;2024-02-16T09:18:42;13.50;99.90
25200;DHT22;33094;48.782;9.162;2024-02-16T09:21:08;13.40;99.90
25200;DHT22;33094;48.782;9.162;2024-02-16T09:23:34;13.80;99.90
25200;DHT22;33094;48.782;9.162;2024-02-16T09:25:59;13.90;99.90
25200;DHT22;33094;48.782;9.162;2024-02-16T09:28:27;14.10;99.90
25200;DHT22;33094;48.782;9.162;2024-02-16T09:30:54;14.30;99.90
25200;DHT22;33094;48.782;9.162;2024-02-16T09:33:20;14.30;99.90
25200;DHT22;33094;48.782;9.162;2024-02-16T09:35:47;17.30;99.90
25200;DHT22;33094;48.782;9.162;2024-02-16T09:38:12;17.10;99.90
25200;DHT22;33094;48.782;9.162;2024-02-16T09:40:38;14.70;99.90
25200;DHT22;33094;48.782;9.162;2024-02-16T09:43:04;15.00;99.90
25200;DHT22;33094;48.782;9.162;2024-02-16T09:45:30;15.20;99.90
25200;DHT22;33094;48.782;9.162;2024-02-16T09:47:57;18.00;99.90
25200;DHT22;33094;48.782;9.162;2024-02-16T09:50:22;15.70;99.90
25200;DHT22;33094;48.782;9.162;2024-02-16T09:52:49;15.90;99.90
25200;DHT22;33094;48.782;9.162;2024-02-16T09:55:15;16.10;99.90
25200;DHT22;33094;48.782;9.162;2024-02-16T09:57:41;16.30;99.90
25200;DHT22;33094;48.782;9.162;2024-02-16T10:00:08;16.40;99.90
25200;DHT22;33094;48.782;9.162;2024-02-16T10:02:41;16.80;99.90
25200;DHT22;33094;48.782;9.162;2024-02-16T10:05:10;17.80;99.90
25200;DHT22;33094;48.782;9.162;2024-02-16T10:07:36;18.40;99.90
25200;DHT22;33094;48.782;9.162;2024-02-16T10:10:02;18.50;99.90
25200;DHT22;33094;48.782;9.162;2024-02-16T10:12:28;18.40;99.90
25200;DHT22;33094;48.782;9.162;2024-02-16T10:14:54;18.00;99.90
25200;DHT22;33094;48.782;9.162;2024-02-16T10:17:20;18.50;99.90
25200;DHT22;33094;48.782;9.162;2024-02-16T10:19:54;17.60;99.90
25200;DHT22;33094;48.782;9.162;2024-02-16T10:22:20;18.80;99.90
25200;DHT22;33094;48.782;9.162;2024-02-16T10:24:48;17.50;99.90
25200;DHT22;33094;48.782;9.162;2024-02-16T10:27:19;17.40;99.90
25200;DHT22;33094;48.782;9.162;2024-02-16T10:29:47;17.00;99.90
25200;DHT22;33094;48.782;9.162;2024-02-16T10:32:15;17.40;99.90
25200;DHT22;33094;48.782;9.162;2024-02-16T10:34:40;17.50;99.90
25200;DHT22;33094;48.782;9.162;2024-02-16T10:37:06;17.60;99.90
25200;DHT22;33094;48.782;9.162;2024-02-16T10:39:34;17.70;99.90
25200;DHT22;33094;48.782;9.162;2024-02-16T10:42:03;15.90;99.90
25200;DHT22;33094;48.782;9.162;2024-02-16T10:44:30;17.50;99.90
25200;DHT22;33094;48.782;9.162;2024-02-16T10:46:55;17.60;99.90
25200;DHT22;33094;48.782;9.162;2024-02-16T10:49:24;17.70;99.90
25200;DHT22;33094;48.782;9.162;2024-02-16T10:51:54;20.60;99.90
25200;DHT22;33094;48.782;9.162;2024-02-16T10:54:22;17.80;99.90
25200;DHT22;33094;48.782;9.162;2024-02-16T10:56:52;17.50;99.90
25200;DHT22;33094;48.782;9.162;2024-02-16T10:59:18;17.50;99.90
25200;DHT22;33094;48.782;9.162;2024-02-16T11:01:44;17.70;99.90
25200;DHT22;33094;48.782;9.162;2024-02-16T11:04:16;17.60;99.90
25200;DHT22;33094;48.782;9.162;2024-02-16T11:06:51;17.70;99.90
25200;DHT22;33094;48.782;9.162;2024-02-16T11:09:30;17.90;99.90
25200;DHT22;33094;48.782;9.162;2024-02-16T11:11:59;17.80;99.90
25200;DHT22;33094;48.782;9.162;2024-02-16T11:14:35;15.10;99.90
25200;DHT22;33094;48.782;9.162;2024-02-16T11:17:02;17.70;99.90
25200;DHT22;33094;48.782;9.162;2024-02-16T11:19:29;17.60;99.90
25200;DHT22;33094;48.782;9.162;2024-02-16T11:21:58;14.80;99.90
25200;DHT22;33094;48.782;9.162;2024-02-16T11:24:30;17.80;99.90
25200;DHT22;33094;48.782;9.162;2024-02-16T11:26:56;17.70;99.90
25200;DHT22;33094;48.782;9.162;2024-02-16T11:29:29;17.50;99.90
25200;DHT22;33094;48.782;9.162;2024-02-16T11:31:56;18.00;99.90
25200;DHT22;33094;48.782;9.162;2024-02-16T11:34:27;20.40;99.90
25200;DHT22;33094;48.782;9.162;2024-02-16T11:36:59;15.50;99.90
25200;DHT22;33094;48.782;9.162;2024-02-16T11:39:25;18.00;99.90
25200;DHT22;33094;48.782;9.162;2024-02-16T11:42:04;15.80;99.90
25200;DHT22;33094;48.782;9.162;2024-02-16T11:44:30;18.20;99.90
25200;DHT22;33094;48.782;9.162;2024-02-16T11:46:57;18.20;99.90
25200;DHT22;33094;48.782;9.162;2024-02-16T11:49:23;18.50;99.90
25200;DHT22;33094;48.782;9.162;2024-02-16T11:51:48;18.70;99.90
25200;DHT22;33094;48.782;9.162;2024-02-16T11:54:14;19.00;99.90
25200;DHT22;33094;48.782;9.162;2024-02-16T11:56:44;19.40;99.90
25200;DHT22;33094;48.782;9.162;2024-02-16T11:59:14;19.80;99.60
25200;DHT22;33094;48.782;9.162;2024-02-16T12:04:22;20.50;98.20
25200;DHT22;33094;48.782;9.162;2024-02-16T12:06:50;21.00;98.10
25200;DHT22;33094;48.782;9.162;2024-02-16T12:09:16;21.20;98.10
25200;DHT22;33094;48.782;9.162;2024-02-16T12:11:42;21.60;98.40
25200;DHT22;33094;48.782;9.162;2024-02-16T12:14:07;21.40;97.40
25200;DHT22;33094;48.782;9.162;2024-02-16T12:16:33;21.30;97.40
25200;DHT22;33094;48.782;9.162;2024-02-16T12:19:03;21.30;97.10
25200;DHT22;33094;48.782;9.162;2024-02-16T12:21:29;21.30;97.30
25200;DHT22;33094;48.782;9.162;2024-02-16T12:23:55;21.20;97.20
25200;DHT22;33094;48.782;9.162;2024-02-16T12:26:21;21.10;97.20
25200;DHT22;33094;48.782;9.162;2024-02-16T12:28:47;20.70;97.40
25200;DHT22;33094;48.782;9.162;2024-02-16T12:31:17;21.00;97.20
25200;DHT22;33094;48.782;9.162;2024-02-16T12:33:46;21.20;97.00
25200;DHT22;33094;48.782;9.162;2024-02-16T12:36:11;21.20;97.00
25200;DHT22;33094;48.782;9.162;2024-02-16T12:38:37;20.90;97.00
25200;DHT22;33094;48.782;9.162;2024-02-16T12:41:08;20.60;97.30
25200;DHT22;33094;48.782;9.162;2024-02-16T12:43:34;20.10;97.70
25200;DHT22;33094;48.782;9.162;2024-02-16T12:46:00;20.00;97.80
25200;DHT22;33094;48.782;9.162;2024-02-16T12:48:27;19.90;97.90
25200;DHT22;33094;48.782;9.162;2024-02-16T12:50:53;19.60;98.20
25200;DHT22;33094;48.782;9.162;2024-02-16T12:53:19;19.60;98.40
25200;DHT22;33094;48.782;9.162;2024-02-16T12:55:46;19.40;98.50
25200;DHT22;33094;48.782;9.162;2024-02-16T12:58:13;19.30;98.60
25200;DHT22;33094;48.782;9.162;2024-02-16T13:00:38;19.40;98.80
25200;DHT22;33094;48.782;9.162;2024-02-16T13:03:04;19.40;98.80
25200;DHT22;33094;48.782;9.162;2024-02-16T13:05:38;19.20;99.00
25200;DHT22;33094;48.782;9.162;2024-02-16T13:08:05;19.10;99.10
25200;DHT22;33094;48.782;9.162;2024-02-16T13:10:31;18.90;99.70
25200;DHT22;33094;48.782;9.162;2024-02-16T13:12:56;15.80;99.50
25200;DHT22;33094;48.782;9.162;2024-02-16T13:15:25;18.70;99.90
25200;DHT22;33094;48.782;9.162;2024-02-16T13:17:51;18.80;99.90
25200;DHT22;33094;48.782;9.162;2024-02-16T13:20:31;18.80;99.90
25200;DHT22;33094;48.782;9.162;2024-02-16T13:23:00;17.40;99.90
25200;DHT22;33094;48.782;9.162;2024-02-16T13:25:36;18.80;99.90
25200;DHT22;33094;48.782;9.162;2024-02-16T13:28:02;18.60;99.90
25200;DHT22;33094;48.782;9.162;2024-02-16T13:30:27;18.50;99.90
25200;DHT22;33094;48.782;9.162;2024-02-16T13:32:53;18.50;99.90
25200;DHT22;33094;48.782;9.162;2024-02-16T13:35:22;16.90;99.90
25200;DHT22;33094;48.782;9.162;2024-02-16T13:37:47;18.50;99.90
25200;DHT22;33094;48.782;9.162;2024-02-16T13:40:17;18.50;99.90
25200;DHT22;33094;48.782;9.162;2024-02-16T13:42:44;18.10;99.90
25200;DHT22;33094;48.782;9.162;2024-02-16T13:45:46;18.40;99.90
25200;DHT22;33094;48.782;9.162;2024-02-16T13:48:28;16.90;99.90
25200;DHT22;33094;48.782;9.162;2024-02-16T13:50:59;18.20;99.90
25200;DHT22;33094;48.782;9.162;2024-02-16T13:53:25;15.80;99.90
25200;DHT22;33094;48.782;9.162;2024-02-16T13:55:51;18.40;99.90
25200;DHT22;33094;48.782;9.162;2024-02-16T13:58:16;18.30;99.90
25200;DHT22;33094;48.782;9.162;2024-02-16T14:00:42;18.30;99.90
25200;DHT22;33094;48.782;9.162;2024-02-16T14:03:17;18.30;99.90
25200;DHT22;33094;48.782;9.162;2024-02-16T14:05:44;18.40;99.90
25200;DHT22;33094;48.782;9.162;2024-02-16T14:08:09;18.20;99.90
25200;DHT22;33094;48.782;9.162;2024-02-16T14:10:36;18.10;99.90
25200;DHT22;33094;48.782;9.162;2024-02-16T14:13:02;17.80;99.90
25200;DHT22;33094;48.782;9.162;2024-02-16T14:15:28;17.80;99.90
25200;DHT22;33094;48.782;9.162;2024-02-16T14:17:54;17.80;99.90
25200;DHT22;33094;48.782;9.162;2024-02-16T14:20:20;17.90;99.90
25200;DHT22;33094;48.782;9.162;2024-02-16T14:22:48;17.80;99.90
25200;DHT22;33094;48.782;9.162;2024-02-16T14:25:19;16.70;99.90
25200;DHT22;33094;48.782;9.162;2024-02-16T14:27:45;17.80;99.90
25200;DHT22;33094;48.782;9.162;2024-02-16T14:30:11;17.70;99.90
25200;DHT22;33094;48.782;9.162;2024-02-16T14:32:37;17.70;99.90
25200;DHT22;33094;48.782;9.162;2024-02-16T14:35:02;17.60;99.90
25200;DHT22;33094;48.782;9.162;2024-02-16T14:37:29;17.50;99.90
25200;DHT22;33094;48.782;9.162;2024-02-16T14:39:54;17.40;99.90
25200;DHT22;33094;48.782;9.162;2024-02-16T14:42:24;17.50;99.90
25200;DHT22;33094;48.782;9.162;2024-02-16T14:44:50;17.60;99.90
25200;DHT22;33094;48.782;9.162;2024-02-16T14:47:16;17.40;99.90
25200;DHT22;33094;48.782;9.162;2024-02-16T14:49:41;17.40;99.90
25200;DHT22;33094;48.782;9.162;2024-02-16T14:52:07;17.40;99.90
25200;DHT22;33094;48.782;9.162;2024-02-16T14:54:34;17.50;99.90
25200;DHT22;33094;48.782;9.162;2024-02-16T14:57:00;18.90;99.90
25200;DHT22;33094;48.782;9.162;2024-02-16T14:59:26;17.50;99.90
25200;DHT22;33094;48.782;9.162;2024-02-16T15:01:52;17.20;99.90
25200;DHT22;33094;48.782;9.162;2024-02-16T15:04:18;17.20;99.90
25200;DHT22;33094;48.782;9.162;2024-02-16T15:06:43;17.30;99.90
25200;DHT22;33094;48.782;9.162;2024-02-16T15:09:09;17.40;99.90
25200;DHT22;33094;48.782;9.162;2024-02-16T15:11:35;17.30;99.90
25200;DHT22;33094;48.782;9.162;2024-02-16T15:14:03;17.30;99.90
25200;DHT22;33094;48.782;9.162;2024-02-16T15:16:29;17.20;99.90
25200;DHT22;33094;48.782;9.162;2024-02-16T15:18:54;17.20;99.90
25200;DHT22;33094;48.782;9.162;2024-02-16T15:21:20;17.30;99.90
25200;DHT22;33094;48.782;9.162;2024-02-16T15:23:46;17.30;99.90
25200;DHT22;33094;48.782;9.162;2024-02-16T15:26:11;18.10;99.90
25200;DHT22;33094;48.782;9.162;2024-02-16T15:28:37;17.20;99.90